Meteorología y climatología de Navarra
Datos de la estación - Meteo Navarra

Estación de Etxarri-Aranatz GN

Altitud 505 m.


Datos desde el 07/12/2018 hasta el 08/12/2018 en horario solar
Los datos son PROVISIONALES

Anterior Página 1 de 1 Siguiente Descargar: Formato para Excel 2000 o superior   Formato csv   Formato para OpenOffice Calc
Fecha Temperatura Humedad relativa Radiación global Insolación Precipitación Velocidad viento 10 m Velocidad viento 10 m Dirección viento 10 m
ºC % W/m² s l/m² m/s km/h º
07/12/2018 0:00 3.0 95 0.0 0 0.0 0.1 0.3 244
07/12/2018 0:10 2.9 96 0.0 0 0.0 0.4 1.3 159
07/12/2018 0:20 2.4 95 0.0 0 0.0 1.0 3.5 170
07/12/2018 0:30 1.9 95 0.0 0 0.0 1.1 3.9 193
07/12/2018 0:40 1.7 96 0.0 0 0.0 0.6 2.2 219
07/12/2018 0:50 2.3 97 0.0 0 0.0 0.4 1.5 295
07/12/2018 1:00 2.3 97 0.0 0 0.0 0.3 0.9 290
07/12/2018 1:10 1.8 96 0.0 0 0.0 0.1 0.2 219
07/12/2018 1:20 1.1 96 0.0 0 0.0 0.7 2.5 225
07/12/2018 1:30 1.2 97 0.0 0 0.0 0.5 1.7 259
07/12/2018 1:40 1.4 97 0.0 0 0.0 0.0 0.1 161
07/12/2018 1:50 0.7 96 0.0 0 0.0 0.1 0.3 127
07/12/2018 2:00 0.8 97 0.0 0 0.0 0.6 2.3 340
07/12/2018 2:10 1.3 98 0.0 0 0.0 1.4 5.1 341
07/12/2018 2:20 1.3 98 0.0 0 0.0 1.1 4.0 315
07/12/2018 2:30 0.3 97 0.0 0 0.0 0.4 1.5 177
07/12/2018 2:40 0.4 97 0.0 0 0.0 0.9 3.2 159
07/12/2018 2:50 0.1 97 0.0 0 0.0 1.1 3.8 177
07/12/2018 3:00 0.2 97 0.0 0 0.0 1.1 4.1 165
07/12/2018 3:10 0.5 98 0.0 0 0.0 0.3 1.0 126
07/12/2018 3:20 1.0 98 0.0 0 0.0 0.2 0.9 346
07/12/2018 3:30 0.6 98 0.0 0 0.0 0.1 0.3 225
07/12/2018 3:40 0.3 98 0.0 0 0.0 0.4 1.5 339
07/12/2018 3:50 0.5 98 0.0 0 0.0 0.5 1.7 299
07/12/2018 4:00 -0.1 98 0.0 0 0.0 0.3 1.2 223
07/12/2018 4:10 -0.5 98 0.0 0 0.0 0.2 0.8 185
07/12/2018 4:20 -0.6 98 0.0 0 0.0 0.2 0.9 154
07/12/2018 4:30 -0.6 98 0.0 0 0.0 0.0 0.0 109
07/12/2018 4:40 -1.0 98 0.0 0 0.0 0.2 0.9 192
07/12/2018 4:50 -1.0 98 0.0 0 0.0 0.3 1.1 327
07/12/2018 5:00 -0.7 98 0.0 0 0.0 0.1 0.2 342
07/12/2018 5:10 -1.1 98 0.0 0 0.0 0.2 0.8 27
07/12/2018 5:20 -0.8 98 0.0 0 0.0 0.3 1.0 41
07/12/2018 5:30 -0.6 98 0.0 0 0.0 0.4 1.4 31
07/12/2018 5:40 -0.5 98 0.0 0 0.0 0.3 1.0 45
07/12/2018 5:50 -0.6 98 0.0 0 0.0 0.2 0.5 77
07/12/2018 6:00 -0.7 98 0.0 0 0.0 0.3 1.0 20
07/12/2018 6:10 -0.6 98 0.0 0 0.0 0.2 0.8 36
07/12/2018 6:20 -0.6 98 0.0 0 0.0 0.3 0.9 45
07/12/2018 6:30 -0.5 99 0.0 0 0.0 0.4 1.6 33
07/12/2018 6:40 -0.5 99 0.0 0 0.0 0.5 1.9 37
07/12/2018 6:50 -0.5 99 0.0 0 0.0 0.1 0.3 74
07/12/2018 7:00 -0.5 99 0.0 0 0.0 0.3 0.9 62
07/12/2018 7:10 -0.5 98 0.0 0 0.0 0.3 1.2 76
07/12/2018 7:20 -0.5 99 0.0 0 0.0 0.0 0.1 64
07/12/2018 7:30 -0.6 99 0.0 0 0.0 0.6 2.2 84
07/12/2018 7:40 -0.4 99 0.0 0 0.0 0.6 2.2 76
07/12/2018 7:50 -0.3 99 0.0 0 0.0 0.7 2.4 75
07/12/2018 8:00 -0.3 99 14.6 0 0.0 0.6 2.3 54
07/12/2018 8:10 -0.1 99 32.3 0 0.0 0.6 2.2 64
07/12/2018 8:20 0.0 99 36.9 0 0.0 0.5 1.9 110
07/12/2018 8:30 0.0 99 42.2 0 0.0 0.3 1.1 190
07/12/2018 8:40 0.0 99 49.3 0 0.0 0.5 1.9 185
07/12/2018 8:50 0.3 99 60.4 0 0.0 0.3 1.1 198
07/12/2018 9:00 0.6 99 82.5 0 0.0 0.1 0.5 94
07/12/2018 9:10 0.8 99 86.4 0 0.0 0.2 0.8 51
07/12/2018 9:20 1.2 99 82.2 0 0.0 0.4 1.5 67
07/12/2018 9:30 1.5 99 111.8 0 0.0 0.5 1.9 86
07/12/2018 9:40 1.8 99 115.4 0 0.0 0.5 1.8 84
07/12/2018 9:50 1.9 99 113.6 0 0.0 0.4 1.3 171
07/12/2018 10:00 2.1 99 122.9 0 0.0 0.1 0.5 18
07/12/2018 10:10 2.4 99 122.3 0 0.0 0.2 0.7 34
07/12/2018 10:20 2.8 99 144.4 0 0.0 0.5 1.7 90
07/12/2018 10:30 3.5 99 149.7 0 0.0 0.6 2.2 59
07/12/2018 10:40 3.7 99 155.0 0 0.0 0.7 2.3 66
07/12/2018 10:50 4.1 99 143.8 0 0.0 0.9 3.1 83
07/12/2018 11:00 4.2 99 143.7 0 0.0 0.5 1.8 70
07/12/2018 11:10 4.2 99 146.3 0 0.0 0.6 2.0 46
07/12/2018 11:20 4.4 99 180.3 0 0.0 0.7 2.3 74
07/12/2018 11:30 5.0 99 207.5 196 0.0 0.8 2.8 46
07/12/2018 11:40 4.8 99 234.7 362 0.0 0.8 3.0 36
07/12/2018 11:50 5.6 99 382.2 600 0.0 0.7 2.5 47
07/12/2018 12:00 5.9 99 396.5 600 0.0 0.9 3.2 55
07/12/2018 12:10 6.4 99 415.1 600 0.0 0.7 2.4 62
07/12/2018 12:20 6.4 99 408.7 600 0.0 0.7 2.6 49
07/12/2018 12:30 6.8 99 406.0 600 0.0 0.6 2.1 66
07/12/2018 12:40 6.9 98 402.4 600 0.0 0.9 3.1 62
07/12/2018 12:50 8.0 97 440.6 600 0.0 1.5 5.3 70
07/12/2018 13:00 8.9 92 234.8 378 0.0 1.3 4.8 83
07/12/2018 13:10 8.6 90 168.2 0 0.0 0.6 2.1 74
07/12/2018 13:20 8.7 85 215.7 214 0.0 1.0 3.5 39
07/12/2018 13:30 9.1 81 331.4 446 0.0 0.6 2.1 34
07/12/2018 13:40 10.2 76 350.2 600 0.0 0.1 0.3 23
07/12/2018 13:50 11.5 68 349.2 590 0.0 0.6 2.1 107
07/12/2018 14:00 12.2 63 316.5 600 0.0 0.4 1.5 158
07/12/2018 14:10 13.0 59 339.6 600 0.0 0.8 2.8 220
07/12/2018 14:20 13.8 57 265.2 512 0.0 1.9 6.8 231
07/12/2018 14:30 13.2 60 137.6 0 0.0 2.3 8.1 210
07/12/2018 14:40 12.7 62 70.0 0 0.0 2.1 7.6 190
07/12/2018 14:50 12.1 63 51.6 0 0.0 1.3 4.7 208
07/12/2018 15:00 12.0 65 36.6 0 0.0 1.7 5.9 269
07/12/2018 15:10 12.1 65 25.8 0 0.0 1.4 5.1 284
07/12/2018 15:20 12.0 65 24.1 0 0.0 1.4 5.0 281
07/12/2018 15:30 12.0 65 27.8 0 0.0 1.5 5.4 281
07/12/2018 15:40 12.1 64 22.1 0 0.0 1.5 5.4 319
07/12/2018 15:50 12.0 65 14.0 0 0.0 0.8 2.8 296
07/12/2018 16:00 11.9 66 8.5 0 0.0 1.1 3.9 288
07/12/2018 16:10 11.9 68 4.0 0 0.0 1.3 4.8 309
07/12/2018 16:20 12.0 73 0.0 0 0.0 1.7 6.0 296
07/12/2018 16:30 11.7 77 0.0 0 0.0 2.0 7.3 309
07/12/2018 16:40 11.4 81 0.0 0 0.0 2.1 7.6 299
07/12/2018 16:50 11.0 83 0.0 0 0.0 1.6 5.9 291
07/12/2018 17:00 10.7 86 0.0 0 0.0 1.1 3.9 280
07/12/2018 17:10 10.5 88 0.0 0 0.0 2.1 7.4 275
07/12/2018 17:20 10.3 89 0.0 0 0.0 1.5 5.4 289
07/12/2018 17:30 10.2 91 0.0 0 0.0 1.9 6.8 291
07/12/2018 17:40 10.3 88 0.0 0 0.0 4.3 15.3 323
07/12/2018 17:50 10.5 85 0.0 0 0.0 4.0 14.3 331
07/12/2018 18:00 10.5 85 0.0 0 0.0 2.8 10.2 312
07/12/2018 18:10 10.2 88 0.0 0 0.0 1.8 6.4 290
07/12/2018 18:20 10.0 90 0.0 0 0.0 1.8 6.6 279
07/12/2018 18:30 9.9 91 0.0 0 0.0 1.5 5.2 269
07/12/2018 18:40 10.0 90 0.0 0 0.1 2.5 9.1 297
07/12/2018 18:50 10.3 87 0.0 0 0.0 3.0 10.9 308
07/12/2018 19:00 10.2 86 0.0 0 0.0 4.3 15.4 311
07/12/2018 19:10 10.0 86 0.0 0 0.0 4.3 15.6 311
07/12/2018 19:20 9.7 88 0.0 0 0.0 3.0 10.7 306
07/12/2018 19:30 9.4 89 0.0 0 0.1 3.2 11.3 316
07/12/2018 19:40 9.4 86 0.0 0 0.0 6.1 22.1 334
07/12/2018 19:50 9.3 88 0.0 0 0.0 3.1 11.0 316
07/12/2018 20:00 9.1 88 0.0 0 0.0 4.6 16.5 321
07/12/2018 20:10 9.1 89 0.0 0 0.1 2.7 9.7 305
07/12/2018 20:20 9.0 90 0.0 0 0.1 2.5 8.9 315
07/12/2018 20:30 8.9 89 0.0 0 0.0 3.1 11.2 354
07/12/2018 20:40 8.7 88 0.0 0 0.1 2.9 10.5 356
07/12/2018 20:50 8.6 89 0.0 0 0.0 3.5 12.7 354
07/12/2018 21:00 8.5 87 0.0 0 0.0 3.1 11.3 347
07/12/2018 21:10 8.2 88 0.0 0 0.0 2.8 9.9 357
07/12/2018 21:20 8.2 88 0.0 0 0.0 3.2 11.4 343
07/12/2018 21:30 8.1 89 0.0 0 0.1 3.1 11.2 334
07/12/2018 21:40 7.9 91 0.0 0 0.0 2.3 8.4 347
07/12/2018 21:50 8.1 89 0.0 0 0.1 3.0 10.9 339
07/12/2018 22:00 8.0 90 0.0 0 0.0 2.3 8.1 326
07/12/2018 22:10 7.9 92 0.0 0 0.1 1.7 6.2 315
07/12/2018 22:20 8.0 91 0.0 0 0.0 2.2 7.8 320
07/12/2018 22:30 8.0 87 0.0 0 0.0 2.8 10.0 315
07/12/2018 22:40 8.0 87 0.0 0 0.0 1.7 6.2 298
07/12/2018 22:50 7.9 88 0.0 0 0.0 2.6 9.3 295
07/12/2018 23:00 7.8 89 0.0 0 0.0 2.5 9.0 290
07/12/2018 23:10 7.7 89 0.0 0 0.0 2.1 7.6 289
07/12/2018 23:20 7.9 88 0.0 0 0.0 1.6 5.7 305
07/12/2018 23:30 7.9 88 0.0 0 0.0 2.2 7.8 313
07/12/2018 23:40 8.0 86 0.0 0 0.0 2.1 7.4 299
07/12/2018 23:50 7.9 87 0.0 0 0.0 2.3 8.2 288
Anterior Página 1 de 1 Siguiente

NOTA: Tipo de datos según el color:
   - Valores diarios o 10 minutos correctos
   - Valores diarios calculados a partir de un número de datos 10 minutos menor que 144 y mayor que 120, o de un número de datos semihorarios menor que 48 y mayor que 40 (caso de las estaciones de Riegos de Navarra y del MARM)
   - Valores diez minutos estimados


Contacto        Enlaces        Aviso legal